| Date | Time | Temp. (oF) | Dew Point (oF) | Rel. Hum. (%) | Press. (in.) | Wind Dir. | Wind Speed (mph) | Hourly Rainfall (in.) |
|
|---|---|---|---|---|---|---|---|---|---|
| 1 | 03/29 | 00:00 | 49 | 48 | 99 | 29.84 | ESE | 4 | 0.00 |
| 2 | 03/28 | 23:00 | 50 | 49 | 98 | 29.87 | NNW | 0 | 0.21 |
| 3 | 03/28 | 22:00 | 50 | 48 | 96 | 29.88 | SSW | 5 | 0.08 |
| 4 | 03/28 | 21:00 | 50 | 48 | 94 | 29.86 | SSE | 10 | 0.03 |
| 5 | 03/28 | 20:00 | 51 | 48 | 90 | 29.90 | ESE | 7 | 0.05 |
| 6 | 03/28 | 19:00 | 53 | 48 | 84 | 29.92 | ESE | 2 | 0.00 |
| 7 | 03/28 | 18:00 | 53 | 47 | 81 | 29.92 | SSE | 10 | 0.00 |
| 8 | 03/28 | 17:00 | 53 | 47 | 81 | 29.95 | SSE | 5 | 0.00 |
| 9 | 03/28 | 16:00 | 52 | 46 | 83 | 29.99 | S | 5 | 0.00 |
| 10 | 03/28 | 15:00 | 50 | 45 | 83 | 30.03 | SE | 3 | 0.00 |
| 11 | 03/28 | 14:00 | 49 | 43 | 82 | 30.08 | SE | 4 | 0.00 |
| 12 | 03/28 | 13:00 | 47 | 41 | 80 | 30.14 | S | 7 | 0.00 |
| 13 | 03/28 | 12:00 | 46 | 40 | 81 | 30.18 | S | 5 | 0.00 |
| 14 | 03/28 | 11:00 | 44 | 38 | 81 | 30.23 | SE | 5 | 0.00 |
| 15 | 03/28 | 10:00 | 41 | 36 | 83 | 30.26 | S | 4 | 0.00 |
| 16 | 03/28 | 09:00 | 39 | 35 | 87 | 30.26 | SE | 5 | 0.00 |
| 17 | 03/28 | 08:00 | 36 | 33 | 91 | 30.28 | SE | 3 | 0.00 |
| 18 | 03/28 | 07:00 | 35 | 32 | 92 | 30.29 | SE | 1 | 0.00 |
| 19 | 03/28 | 06:00 | 35 | 32 | 92 | 30.28 | SSE | 3 | 0.00 |
| 20 | 03/28 | 05:00 | 34 | 31 | 91 | 30.29 | ESE | 4 | 0.00 |
| 21 | 03/28 | 04:00 | 33 | 30 | 91 | 30.31 | SSE | 2 | 0.00 |
| 22 | 03/28 | 03:00 | 33 | 30 | 89 | 30.34 | SE | 2 | 0.00 |
| 23 | 03/28 | 02:00 | 32 | 28 | 87 | 30.35 | SSE | 3 | 0.00 |
| 24 | 03/28 | 01:00 | 33 | 28 | 83 | 30.37 | S | 3 | 0.00 |